Saint Libory, Nebraska
Current Conditions -  °F | °C
As of 1:53 PM on Thursday 23 Oct 2014 (Local Time) from KGRI Reporting Station
Clear Clear  
Wind Chill: 63°   Ceiling: Unl
Heat Index: 63°   Visibility: 10mi
Dew Point: 55°   Wind: 8mph
Humidity: 75%   Direction: 200°SSW
Pressure: 30.07"   Gusts: NA
Location:  41.08°N, 98.36°W
Report Text: KGRI 231853Z 20007KT 10SM CLR 17/13 A3007 RMK AO2 SLP180 T01720128
Loading
Personal Weather Stations






























Interactive Weather Map
Tropical Storm Tracking
New forecast layout! Learn more

10-Day Weather Forecast

Advertisements
Track Severe Weather on mobile